Alfred Station, NY

1:25 AM EDT on July 25, 2014 (GMT -0400)
Ardachy Farm (KNYALFRE2) Elev 1877 ft | 42.28 °N, 77.77 °W | Change Station

Current weather conditions updated 10 seconds ago

Clear
Clear
50.5 °F
Feels Like 50.5 °F
N
5.4
Wind Variable Wind from SE
Gusts 5.4 mph

Today is forecast to be Warmer than yesterday.

Today
High -- | Low -- °F
--% Chance of Precip.
Yesterday
High -- | Low -- °F
Precip. -- in
5:57 AM 8:37 PM
Waning Crescent, 3% visible
Pressure 30.09 in
Visibility 10.0 miles
Clouds Clear
Dew Point 46 °F
Humidity 86%
Rainfall 0.00 in
Snow Depth Not available.
UV 0 out of 12
Pollen 6.40 out of 12
Ozone Good
PM2.5 Good
Flu Activity Not available.
METAR KELZ 250456Z AUTO 31004KT 10SM CLR 12/06 A3010 RMK AO2 SLP190 T01220061 402110106

More Conditions Fewer Conditions

Pressure 30.09 in
Visibility 10.0 miles
Clouds Clear
Dew Point 46 °F
Humidity 86%
Rainfall 0.00 in
Snow Depth Not available.
UV 0 out of 12
Pollen 6.40 out of 12
Ozone Good
PM2.5 Good
Flu Activity Not available.
METAR KELZ 250456Z AUTO 31004KT 10SM CLR 12/06 A3010 RMK AO2 SLP190 T01220061 402110106

More Conditions Fewer Conditions

10-Day Weather Forecast

Almanac

Astronomy

Jul. 25, 2014 Rise Set
Actual Time 5:57 AM EDT 8:37 PM EDT
Civil Twilight 5:24 AM EDT 9:10 PM EDT
Nautical Twilight 4:43 AM EDT 9:50 PM EDT
Astronomical Twilight 3:57 AM EDT 10:36 PM EDT
Moon 4:55 AM EDT 7:32 PM EDT
Length of Visible Light 15h 45m
Length of Day
14h 40m
Tomorrow will be 1m 56s shorter.
Waning Crescent, 3% of the Moon is Illuminated
Today
Waning Crescent
Jul 26
New
Aug 3
First Quarter
Aug 10
Full
Aug 17
Last Quarter

Today's Extremes

State Highs State Lows

Community

WunderPhotos

Upload Photos

1,737,245 photos uploaded!

Nearby

Air Quality

  Air Quality AQ Index Pollutant
Yesterday Good
OZONE
Current Good
OZONE
Current Good
PM2.5
Thursday Good
OZONE
Thursday Good
PM2.5
Friday Good
OZONE
Friday Good
PM2.5

Snow Depth

Station Depth Elevation
No new snow has been reported.

Earthquake Activity

City Distance Mag. Time & Date
No recent earthquake activity has been reported nearby.
Minimum magnitude displayed is 2.5.

Coastal Water Temperatures

Place Temperature
No Stations Reporting

Nearby Weather Stations

Station Location Temp. Dew Point Humidity Wind Precip. Elev Updated Type
Ardachy Farm, Alfred Station, NY 50.5 °F 46 °F 86% SE  at  5.4 mph 0.00 in / hr 1877 ft 1:25 AM EDT Normal
HADS ALMOND LAKE NEAR HORNELL NY, Hornell, NY 53 °F - - North  at  - 0.00 in / hr 1325 ft 12:00 AM EDT MADIS
Dalton, Dalton, NY 50.4 °F 48 °F 90% NW  at  0.0 mph 0.00 in / hr 1913 ft 1:18 AM EDT Normal
Dansville, NY 53.5 °F 46 °F 75% South  at  2.0 mph 0.00 in / hr 1585 ft 1:25 AM EDT Rapid Fire
Nunda Mt Morris TL Rd./Scipio Rd., Nunda, NY 50.9 °F 47 °F 86% South  at  0.0 mph 0.00 in / hr 1024 ft 1:25 AM EDT Rapid Fire
Dickson Farms, Bath, NY 52.2 °F 49 °F 88% SSW  at  0.0 mph 0.00 in / hr 1680 ft 1:20 AM EDT Normal

Show More Stations Show Fewer Stations